Time;durP1;ratioP1;P1;durP2;ratioP2;P2;SDS_P1;SDS_P2;PMS_P1;PMS_P2;Temp;Humidity;BMP_temperature;BMP_pressure;BME280_temperature;BME280_humidity;BME280_pressure;Samples;Min_cycle;Max_cycle;Signal;HPM_P1;HPM_P2
2023/12/30 00:02:15;;;;;;;13.35;2.40;;;4.10;99.90;;;;;;5048717;28;20017;-90
2023/12/30 00:04:40;;;;;;;9.07;1.33;;;4.10;99.90;;;;;;5050438;28;20093;-91
2023/12/30 00:07:06;;;;;;;11.00;2.28;;;4.10;99.90;;;;;;5050581;28;20089;-91
2023/12/30 00:09:32;;;;;;;8.18;0.82;;;4.10;99.90;;;;;;5051109;28;20029;-90
2023/12/30 00:11:57;;;;;;;10.32;1.17;;;4.10;99.90;;;;;;5051111;28;20664;-91
2023/12/30 00:14:23;;;;;;;6.88;1.27;;;4.10;99.90;;;;;;5048657;28;20102;-90
2023/12/30 00:16:49;;;;;;;10.32;1.33;;;4.10;99.90;;;;;;5050234;28;20430;-90
2023/12/30 00:19:14;;;;;;;5.65;1.00;;;4.10;99.90;;;;;;5049394;28;20063;-91
2023/12/30 00:21:40;;;;;;;7.30;1.10;;;4.10;99.90;;;;;;5048840;28;20048;-92
2023/12/30 00:24:06;;;;;;;4.13;1.30;;;4.10;99.90;;;;;;5048375;28;20052;-90
2023/12/30 00:26:32;;;;;;;9.45;1.13;;;4.10;99.90;;;;;;5050294;28;20079;-90
2023/12/30 00:28:57;;;;;;;8.15;1.38;;;4.10;99.90;;;;;;5051022;28;20630;-91
2023/12/30 00:31:27;;;;;;;4.45;0.95;;;4.00;99.90;;;;;;5050013;28;20132;-90
2023/12/30 00:33:56;;;;;;;6.43;1.00;;;4.10;99.90;;;;;;5047072;28;20076;-91
2023/12/30 00:36:22;;;;;;;11.60;1.40;;;4.00;99.90;;;;;;5049288;28;20028;-91
2023/12/30 00:38:47;;;;;;;7.75;1.50;;;4.00;99.90;;;;;;5048946;28;20064;-91
2023/12/30 00:41:14;;;;;;;8.43;1.20;;;4.00;99.90;;;;;;5047869;28;20029;-90
2023/12/30 00:43:43;;;;;;;12.05;1.40;;;4.00;99.90;;;;;;5050442;28;20029;-89
2023/12/30 00:46:09;;;;;;;10.32;2.40;;;4.00;99.90;;;;;;5052190;28;20021;-91
2023/12/30 00:48:35;;;;;;;5.70;1.27;;;4.00;99.90;;;;;;5044970;28;20036;-91
2023/12/30 00:51:01;;;;;;;11.63;1.15;;;4.00;99.90;;;;;;5047304;28;20029;-88
2023/12/30 00:53:28;;;;;;;8.23;1.38;;;4.00;99.90;;;;;;5050090;28;20028;-92
2023/12/30 00:55:54;;;;;;;8.32;1.00;;;4.00;99.90;;;;;;5048594;28;20124;-90
2023/12/30 00:58:20;;;;;;;11.10;1.50;;;4.00;99.90;;;;;;5048176;28;20544;-90
2023/12/30 01:00:46;;;;;;;10.70;2.28;;;4.00;99.90;;;;;;5062851;28;20025;-90
2023/12/30 01:03:12;;;;;;;3.60;1.08;;;4.00;99.90;;;;;;5064190;28;20483;-90
2023/12/30 01:05:38;;;;;;;10.82;1.55;;;4.00;99.90;;;;;;5061189;28;20021;-89
2023/12/30 01:08:04;;;;;;;5.60;0.68;;;4.00;99.90;;;;;;5062598;28;20073;-90
2023/12/30 01:10:29;;;;;;;5.97;1.20;;;3.90;99.90;;;;;;5057665;28;20041;-90
2023/12/30 01:12:55;;;;;;;9.52;1.55;;;4.00;99.90;;;;;;5053933;28;20035;-92
2023/12/30 01:15:21;;;;;;;7.32;1.23;;;4.00;99.90;;;;;;5052935;28;20025;-91
2023/12/30 01:17:46;;;;;;;8.85;1.50;;;3.90;99.90;;;;;;5056690;28;20112;-90
2023/12/30 01:20:12;;;;;;;7.40;1.23;;;3.90;99.90;;;;;;5051587;28;20151;-91
2023/12/30 01:22:38;;;;;;;9.93;1.17;;;3.90;99.90;;;;;;5050602;28;20017;-90
2023/12/30 01:25:04;;;;;;;7.30;1.15;;;3.90;99.90;;;;;;5051343;28;20036;-91
2023/12/30 01:27:29;;;;;;;8.13;1.35;;;3.90;99.90;;;;;;5052656;28;20017;-92
2023/12/30 01:29:55;;;;;;;5.82;1.00;;;3.90;99.90;;;;;;5050388;28;20040;-91
2023/12/30 01:32:21;;;;;;;6.63;1.23;;;3.90;99.90;;;;;;5049380;28;20044;-90
2023/12/30 01:34:46;;;;;;;7.93;1.00;;;3.90;99.90;;;;;;5049707;28;20021;-91
2023/12/30 01:37:12;;;;;;;7.75;1.30;;;3.90;99.90;;;;;;5049748;28;20025;-91
2023/12/30 01:39:38;;;;;;;7.22;0.88;;;3.90;99.90;;;;;;5050117;28;20025;-91
2023/12/30 01:42:04;;;;;;;6.65;1.17;;;3.90;99.90;;;;;;5049522;28;20033;-90
2023/12/30 01:44:31;;;;;;;11.18;1.27;;;3.90;99.90;;;;;;5047783;28;20052;-90
2023/12/30 01:46:58;;;;;;;6.68;1.15;;;3.90;99.90;;;;;;5049618;28;20124;-91
2023/12/30 01:49:23;;;;;;;10.63;1.40;;;3.90;99.90;;;;;;5050201;28;20032;-91
2023/12/30 01:51:50;;;;;;;10.25;1.35;;;3.90;99.90;;;;;;5049113;28;20025;-91
2023/12/30 01:54:21;;;;;;;7.88;1.17;;;3.90;99.90;;;;;;5050189;28;20491;-91
2023/12/30 01:56:49;;;;;;;13.18;1.45;;;3.90;99.90;;;;;;5047396;28;20021;-91
2023/12/30 01:59:18;;;;;;;13.85;1.65;;;3.90;99.90;;;;;;5051896;28;20025;-91
2023/12/30 02:01:45;;;;;;;9.20;1.95;;;3.90;99.90;;;;;;5050712;28;20049;-91
2023/12/30 02:04:11;;;;;;;5.45;1.45;;;3.90;99.90;;;;;;5047721;28;20222;-91
2023/12/30 02:06:39;;;;;;;10.35;1.80;;;3.90;99.90;;;;;;5057268;28;20040;-90
2023/12/30 02:09:05;;;;;;;14.98;2.03;;;3.80;99.90;;;;;;5055677;28;20373;-92
2023/12/30 02:11:31;;;;;;;8.10;1.33;;;3.80;99.90;;;;;;5055889;28;20033;-92
2023/12/30 02:13:57;;;;;;;10.82;1.20;;;3.80;99.90;;;;;;5054074;28;20115;-93
2023/12/30 02:16:23;;;;;;;9.43;1.35;;;3.80;99.90;;;;;;5050157;28;20108;-91
2023/12/30 02:18:49;;;;;;;11.45;1.15;;;3.80;99.90;;;;;;5048926;28;20486;-92
2023/12/30 02:21:15;;;;;;;7.63;1.20;;;3.80;99.90;;;;;;5049609;28;20025;-92
2023/12/30 02:23:40;;;;;;;9.43;1.20;;;3.80;99.90;;;;;;5050175;28;20025;-92
2023/12/30 02:26:07;;;;;;;5.63;1.33;;;3.70;99.90;;;;;;5049506;28;20430;-92
2023/12/30 02:28:33;;;;;;;6.82;1.08;;;3.70;99.90;;;;;;5048727;28;20025;-90
2023/12/30 02:30:59;;;;;;;10.35;1.30;;;3.70;99.90;;;;;;5048230;28;20029;-92
2023/12/30 02:33:25;;;;;;;7.45;1.23;;;3.70;99.90;;;;;;5048272;28;20049;-91
2023/12/30 02:35:51;;;;;;;7.10;1.05;;;3.80;99.90;;;;;;5049734;28;20021;-92
2023/12/30 02:38:17;;;;;;;7.88;1.52;;;3.80;99.90;;;;;;5049075;28;20491;-91
2023/12/30 02:40:43;;;;;;;12.68;1.25;;;3.80;99.90;;;;;;5048513;28;20021;-91
2023/12/30 02:43:09;;;;;;;3.65;0.98;;;3.80;99.90;;;;;;5050150;28;20506;-90
2023/12/30 02:45:35;;;;;;;20.13;3.88;;;3.80;99.90;;;;;;5047097;28;20025;-91
2023/12/30 02:48:01;;;;;;;13.15;1.00;;;3.80;99.90;;;;;;5049520;28;20017;-91
2023/12/30 02:50:26;;;;;;;15.82;2.38;;;3.80;99.90;;;;;;5049377;28;20033;-90
2023/12/30 02:52:52;;;;;;;9.23;1.27;;;3.90;99.90;;;;;;5048283;28;20084;-90
2023/12/30 02:55:18;;;;;;;5.72;0.90;;;3.90;99.90;;;;;;5049677;28;20056;-90
2023/12/30 02:57:45;;;;;;;12.57;2.83;;;3.90;99.90;;;;;;5052154;28;20542;-90
2023/12/30 03:00:11;;;;;;;8.93;1.08;;;4.00;99.90;;;;;;5050680;28;20036;-90
2023/12/30 03:02:38;;;;;;;13.02;0.95;;;3.90;99.90;;;;;;5052695;28;20029;-90
2023/12/30 03:05:04;;;;;;;9.48;1.00;;;4.00;99.90;;;;;;5050794;28;20025;-90
2023/12/30 03:07:29;;;;;;;9.38;1.08;;;4.00;99.90;;;;;;5050926;28;20025;-91
2023/12/30 03:09:55;;;;;;;10.75;1.35;;;4.00;99.90;;;;;;5050738;28;20062;-89
2023/12/30 03:12:21;;;;;;;9.60;1.25;;;4.10;99.90;;;;;;5052614;28;20058;-93
2023/12/30 03:14:47;;;;;;;9.48;1.08;;;4.10;99.90;;;;;;5051315;28;20032;-89
2023/12/30 03:17:13;;;;;;;5.28;0.98;;;4.10;99.90;;;;;;5050943;28;20025;-92
2023/12/30 03:19:40;;;;;;;7.75;1.38;;;4.10;99.90;;;;;;5050947;28;20045;-92
2023/12/30 03:22:06;;;;;;;8.07;1.55;;;4.10;99.90;;;;;;5050710;28;20021;-89
2023/12/30 03:24:32;;;;;;;9.45;0.90;;;4.10;99.90;;;;;;5051076;28;20036;-89
2023/12/30 03:26:57;;;;;;;7.75;0.90;;;4.10;99.90;;;;;;5050372;28;20017;-92
2023/12/30 03:29:23;;;;;;;8.00;1.05;;;4.10;99.90;;;;;;5050406;28;20045;-91
2023/12/30 03:31:49;;;;;;;8.38;1.38;;;4.10;99.90;;;;;;5051182;28;20443;-92
2023/12/30 03:34:15;;;;;;;7.68;1.00;;;4.10;99.90;;;;;;5050750;28;20029;-91
2023/12/30 03:36:40;;;;;;;13.48;2.28;;;4.10;99.90;;;;;;5050526;28;20028;-92
2023/12/30 03:39:06;;;;;;;7.65;1.05;;;4.10;99.90;;;;;;5051106;28;20025;-93
2023/12/30 03:41:32;;;;;;;6.57;1.23;;;4.10;99.90;;;;;;5050962;28;20049;-91
2023/12/30 03:43:57;;;;;;;7.45;1.20;;;4.10;99.90;;;;;;5053010;28;20017;-92
2023/12/30 03:46:23;;;;;;;6.13;1.30;;;4.10;99.90;;;;;;5052290;28;20071;-91
2023/12/30 03:48:49;;;;;;;9.32;1.30;;;4.10;99.90;;;;;;5048148;28;20043;-89
2023/12/30 03:51:14;;;;;;;9.98;1.25;;;4.10;99.90;;;;;;5049977;28;20044;-92
2023/12/30 03:53:41;;;;;;;7.95;1.08;;;4.10;99.90;;;;;;5049880;28;20098;-91
2023/12/30 03:56:06;;;;;;;1.77;0.90;;;4.20;99.90;;;;;;5049698;28;20021;-90
2023/12/30 03:58:32;;;;;;;6.90;1.17;;;4.20;99.90;;;;;;5050675;28;20021;-91
2023/12/30 04:00:58;;;;;;;2.53;0.85;;;4.20;99.90;;;;;;5049918;28;20025;-91
2023/12/30 04:03:23;;;;;;;9.25;1.05;;;4.20;99.90;;;;;;5050436;28;20029;-93
2023/12/30 04:05:49;;;;;;;9.88;1.13;;;4.20;99.90;;;;;;5049836;28;20411;-90
2023/12/30 04:08:15;;;;;;;7.65;1.10;;;4.20;99.90;;;;;;5049668;28;20083;-91
2023/12/30 04:10:41;;;;;;;3.45;0.75;;;4.20;99.90;;;;;;5050867;28;20053;-92
2023/12/30 04:13:07;;;;;;;6.53;1.23;;;4.20;99.90;;;;;;5049382;28;20057;-92
2023/12/30 04:15:32;;;;;;;8.93;2.10;;;4.20;99.90;;;;;;5049944;28;20029;-90
2023/12/30 04:17:58;;;;;;;5.00;1.20;;;4.20;99.90;;;;;;5050054;28;20144;-91
2023/12/30 04:20:23;;;;;;;11.75;1.17;;;4.20;99.90;;;;;;5050155;28;20040;-91
2023/12/30 04:22:49;;;;;;;11.75;1.35;;;4.20;99.90;;;;;;5048021;28;20029;-92
2023/12/30 04:25:15;;;;;;;7.68;0.80;;;4.20;99.90;;;;;;5050538;28;20018;-91
2023/12/30 04:27:40;;;;;;;8.07;1.15;;;4.20;99.90;;;;;;5051083;28;20044;-91
2023/12/30 04:30:07;;;;;;;7.88;1.15;;;4.20;99.90;;;;;;5050157;28;20095;-92
2023/12/30 04:32:33;;;;;;;4.95;1.10;;;4.20;99.90;;;;;;5032731;28;20041;-89
2023/12/30 04:34:58;;;;;;;5.15;1.15;;;4.20;99.90;;;;;;5049680;28;20094;-89
2023/12/30 04:37:24;;;;;;;7.60;1.25;;;4.20;99.90;;;;;;5051291;28;20442;-90
2023/12/30 04:39:49;;;;;;;3.60;1.00;;;4.10;99.90;;;;;;5049366;28;20492;-91
2023/12/30 04:42:15;;;;;;;13.15;1.40;;;4.10;99.90;;;;;;5053384;28;20017;-90
2023/12/30 04:44:41;;;;;;;5.53;1.52;;;4.10;99.90;;;;;;5055417;28;20017;-90
2023/12/30 04:47:07;;;;;;;7.03;1.05;;;4.10;99.90;;;;;;5056477;28;20392;-90
2023/12/30 04:49:33;;;;;;;5.85;1.10;;;4.10;99.90;;;;;;5055626;28;20097;-91
2023/12/30 04:51:59;;;;;;;6.60;0.95;;;4.10;99.90;;;;;;5054260;28;20031;-90
2023/12/30 04:54:30;;;;;;;5.47;0.85;;;4.10;99.90;;;;;;5054488;28;20504;-91
2023/12/30 04:56:56;;;;;;;7.90;1.20;;;4.00;99.90;;;;;;5053509;28;20021;-89
2023/12/30 04:59:22;;;;;;;5.47;1.30;;;4.00;99.90;;;;;;5057113;28;20071;-91
2023/12/30 05:01:48;;;;;;;6.82;1.10;;;4.00;99.90;;;;;;5053120;28;20546;-90
2023/12/30 05:04:13;;;;;;;8.15;1.13;;;3.90;99.90;;;;;;5050889;28;20033;-91
2023/12/30 05:06:39;;;;;;;4.25;1.05;;;3.90;99.90;;;;;;5051483;28;20523;-91
2023/12/30 05:09:05;;;;;;;5.07;0.63;;;3.90;99.90;;;;;;5048694;28;20032;-92
2023/12/30 05:11:31;;;;;;;2.22;0.90;;;3.90;99.90;;;;;;5052193;28;20096;-92
2023/12/30 05:13:57;;;;;;;15.75;2.15;;;3.80;99.90;;;;;;5048512;28;20110;-90
2023/12/30 05:16:22;;;;;;;10.93;1.00;;;3.80;99.90;;;;;;5049777;28;20013;-92
2023/12/30 05:18:48;;;;;;;8.80;1.00;;;3.70;99.90;;;;;;5051496;28;20021;-91
2023/12/30 05:21:17;;;;;;;6.72;1.25;;;3.70;99.90;;;;;;5050032;28;20021;-91
2023/12/30 05:23:44;;;;;;;9.00;1.52;;;3.70;99.90;;;;;;5049122;28;20096;-91
2023/12/30 05:26:12;;;;;;;7.55;0.93;;;3.70;99.90;;;;;;5047517;28;20484;-90
2023/12/30 05:28:38;;;;;;;7.25;0.75;;;3.70;99.90;;;;;;5049582;28;20071;-92
2023/12/30 05:31:04;;;;;;;5.80;0.95;;;3.70;99.90;;;;;;5047817;28;20491;-91
2023/12/30 05:33:30;;;;;;;7.60;1.15;;;3.60;99.90;;;;;;5050748;28;20041;-92
2023/12/30 05:35:56;;;;;;;6.15;1.30;;;3.60;99.90;;;;;;5049306;28;20040;-90
2023/12/30 05:38:21;;;;;;;9.10;0.90;;;3.60;99.90;;;;;;5049262;28;20037;-89
2023/12/30 05:40:47;;;;;;;7.05;1.05;;;3.60;99.90;;;;;;5049592;28;20092;-91
2023/12/30 05:43:13;;;;;;;15.05;2.47;;;3.60;99.90;;;;;;5049231;28;20108;-91
2023/12/30 05:45:40;;;;;;;6.28;1.15;;;3.60;99.90;;;;;;5051082;28;20384;-92
2023/12/30 05:48:06;;;;;;;13.15;2.13;;;3.60;99.90;;;;;;5049027;28;20091;-91
2023/12/30 05:50:32;;;;;;;5.65;1.48;;;3.60;99.90;;;;;;5048790;28;20033;-91
2023/12/30 05:52:59;;;;;;;8.73;1.08;;;3.50;99.90;;;;;;5048667;28;20100;-91
2023/12/30 05:55:24;;;;;;;5.90;0.88;;;3.50;99.90;;;;;;5047262;28;20079;-91
2023/12/30 05:57:50;;;;;;;5.07;0.85;;;3.50;99.90;;;;;;5047829;28;20499;-91
2023/12/30 06:00:19;;;;;;;7.75;1.10;;;3.50;99.90;;;;;;5048262;28;20021;-91
2023/12/30 06:02:45;;;;;;;7.00;1.00;;;3.50;99.90;;;;;;5048050;28;20045;-90
2023/12/30 06:05:10;;;;;;;5.70;0.90;;;3.50;99.90;;;;;;5049499;28;20074;-91
2023/12/30 06:07:38;;;;;;;6.82;0.90;;;3.50;99.90;;;;;;5049704;28;20025;-91
2023/12/30 06:10:05;;;;;;;10.98;1.00;;;3.50;99.90;;;;;;5048067;28;20033;-91
2023/12/30 06:12:31;;;;;;;15.77;1.17;;;3.50;99.90;;;;;;5046306;28;20036;-92
2023/12/30 06:14:56;;;;;;;12.48;1.60;;;3.50;99.90;;;;;;5048765;28;20111;-91
2023/12/30 06:17:22;;;;;;;10.90;1.55;;;3.50;99.90;;;;;;5049896;28;20420;-92
2023/12/30 06:19:48;;;;;;;11.85;0.90;;;3.50;99.90;;;;;;5047307;28;20086;-91
2023/12/30 06:22:14;;;;;;;7.47;0.90;;;3.50;99.90;;;;;;5048507;28;20092;-91
2023/12/30 06:24:39;;;;;;;7.28;0.90;;;3.50;99.90;;;;;;5049006;28;20020;-92
2023/12/30 06:27:05;;;;;;;8.93;1.02;;;3.50;99.90;;;;;;5049189;28;20025;-91
2023/12/30 06:29:31;;;;;;;7.88;1.23;;;3.50;99.90;;;;;;5047700;28;20021;-91
2023/12/30 06:31:57;;;;;;;12.65;1.00;;;3.50;99.90;;;;;;5052131;28;20104;-91
2023/12/30 06:34:23;;;;;;;14.25;1.60;;;3.50;99.90;;;;;;5052748;28;20484;-90
2023/12/30 06:36:49;;;;;;;4.38;1.00;;;3.60;99.90;;;;;;5051828;28;20406;-91
2023/12/30 06:39:17;;;;;;;6.47;1.10;;;3.60;99.90;;;;;;5053068;28;20021;-91
2023/12/30 06:41:43;;;;;;;6.22;0.80;;;3.60;99.90;;;;;;5051957;28;20013;-91
2023/12/30 06:44:09;;;;;;;8.52;1.25;;;3.70;99.90;;;;;;5051898;28;20021;-90
2023/12/30 06:46:35;;;;;;;8.82;1.63;;;3.70;99.90;;;;;;5054027;28;20032;-90
2023/12/30 06:49:01;;;;;;;8.05;0.90;;;3.70;99.90;;;;;;5051417;28;20037;-91
2023/12/30 06:51:27;;;;;;;4.00;0.90;;;3.70;99.90;;;;;;5049469;28;20033;-92
2023/12/30 06:53:53;;;;;;;16.13;2.55;;;3.70;99.90;;;;;;5053222;28;20016;-91
2023/12/30 06:56:19;;;;;;;6.43;1.23;;;3.70;99.90;;;;;;5054520;28;20056;-91
2023/12/30 06:58:45;;;;;;;5.90;1.55;;;3.70;99.90;;;;;;5053758;28;20095;-91
2023/12/30 07:01:14;;;;;;;8.80;1.05;;;3.80;99.90;;;;;;5053183;28;20037;-90
2023/12/30 07:03:40;;;;;;;5.72;1.00;;;3.70;99.90;;;;;;5053436;28;20029;-90
2023/12/30 07:06:06;;;;;;;6.38;1.23;;;3.80;99.90;;;;;;5053915;28;20104;-90
2023/12/30 07:08:32;;;;;;;8.02;0.95;;;3.80;99.90;;;;;;5054641;28;20033;-90
2023/12/30 07:10:58;;;;;;;7.32;1.27;;;3.80;99.90;;;;;;5053539;28;20106;-90
2023/12/30 07:13:24;;;;;;;7.65;1.58;;;3.80;99.90;;;;;;5054524;28;20021;-90
2023/12/30 07:15:50;;;;;;;7.57;1.10;;;3.80;99.90;;;;;;5053843;28;20528;-89
2023/12/30 07:18:19;;;;;;;7.93;1.35;;;3.80;99.90;;;;;;5056750;28;20024;-90
2023/12/30 07:20:44;;;;;;;5.05;1.13;;;3.70;99.90;;;;;;5056840;28;20025;-90
2023/12/30 07:23:10;;;;;;;11.25;2.38;;;3.70;99.90;;;;;;5055468;28;20040;-91
2023/12/30 07:25:36;;;;;;;11.90;1.20;;;3.70;99.90;;;;;;5055605;28;20044;-90
2023/12/30 07:28:02;;;;;;;3.85;0.80;;;3.70;99.90;;;;;;5054435;28;20391;-90
2023/12/30 07:30:28;;;;;;;7.38;1.25;;;3.70;99.90;;;;;;5053068;28;20028;-90
2023/12/30 07:32:54;;;;;;;9.20;1.20;;;3.70;99.90;;;;;;5053326;28;20041;-89
2023/12/30 07:35:20;;;;;;;7.75;1.15;;;3.70;99.90;;;;;;5054180;28;20021;-89
2023/12/30 07:37:46;;;;;;;7.25;1.00;;;3.70;99.90;;;;;;5055717;28;20123;-87
2023/12/30 07:40:12;;;;;;;4.80;1.90;;;3.70;99.90;;;;;;5056960;28;20104;-89
2023/12/30 07:42:38;;;;;;;7.78;1.67;;;3.70;99.90;;;;;;5052996;28;20468;-89
2023/12/30 07:45:06;;;;;;;11.20;1.50;;;3.70;99.90;;;;;;5055942;28;20167;-89
2023/12/30 07:47:33;;;;;;;5.05;1.73;;;3.70;99.90;;;;;;5048536;28;20614;-88
2023/12/30 07:49:59;;;;;;;8.25;1.60;;;3.70;99.90;;;;;;5049617;28;20033;-88
2023/12/30 07:52:25;;;;;;;5.78;0.82;;;3.70;99.90;;;;;;5047111;28;20025;-88
2023/12/30 07:54:51;;;;;;;4.50;1.00;;;3.70;99.90;;;;;;5046148;28;20025;-89
2023/12/30 07:57:17;;;;;;;6.32;0.98;;;3.70;99.90;;;;;;5047666;28;20025;-89
2023/12/30 07:59:43;;;;;;;6.13;1.08;;;3.60;99.90;;;;;;5047863;28;20078;-89
2023/12/30 08:02:08;;;;;;;5.38;1.13;;;3.70;99.90;;;;;;5046744;28;20032;-88
2023/12/30 08:04:34;;;;;;;8.23;0.95;;;3.60;99.90;;;;;;5048589;28;20415;-89
2023/12/30 08:07:00;;;;;;;7.32;1.10;;;3.60;99.90;;;;;;5047505;28;20032;-89
2023/12/30 08:09:26;;;;;;;10.77;1.25;;;3.60;99.90;;;;;;5046487;28;20029;-89
2023/12/30 08:11:51;;;;;;;8.73;1.13;;;3.60;99.90;;;;;;5046419;28;20029;-89
2023/12/30 08:14:17;;;;;;;6.22;1.10;;;3.60;99.90;;;;;;5046558;28;20104;-90
2023/12/30 08:16:45;;;;;;;4.90;0.90;;;3.60;99.90;;;;;;5042595;28;20033;-89
2023/12/30 08:19:11;;;;;;;7.63;1.38;;;3.60;99.90;;;;;;5041820;28;20041;-88
2023/12/30 08:21:37;;;;;;;8.10;1.08;;;3.70;99.90;;;;;;5039441;28;20041;-87
2023/12/30 08:24:06;;;;;;;5.88;1.13;;;3.70;99.90;;;;;;5042092;28;20484;-89
2023/12/30 08:26:32;;;;;;;7.15;1.20;;;3.70;99.90;;;;;;5036042;28;20033;-89
2023/12/30 08:28:58;;;;;;;4.78;0.90;;;3.70;99.90;;;;;;5047885;28;20017;-90
2023/12/30 08:31:23;;;;;;;4.72;1.00;;;3.70;99.90;;;;;;5040550;28;20384;-90
2023/12/30 08:33:50;;;;;;;10.70;1.08;;;3.70;99.90;;;;;;5044425;28;20385;-89
2023/12/30 08:36:16;;;;;;;5.15;1.00;;;3.80;99.90;;;;;;5048483;28;20520;-87
2023/12/30 08:38:42;;;;;;;5.72;0.90;;;3.90;99.90;;;;;;5046668;28;20107;-90
2023/12/30 08:41:14;;;;;;;5.43;0.95;;;3.90;99.90;;;;;;5042754;28;20056;-89
2023/12/30 08:43:43;;;;;;;8.18;1.15;;;3.90;99.90;;;;;;5042467;28;20028;-90
2023/12/30 08:46:09;;;;;;;7.53;0.90;;;3.90;99.90;;;;;;5036465;28;20028;-89
2023/12/30 08:48:36;;;;;;;10.30;1.10;;;3.90;99.90;;;;;;5042691;28;20112;-90
2023/12/30 08:51:01;;;;;;;5.38;0.88;;;3.90;99.90;;;;;;5048778;28;20036;-89
2023/12/30 08:53:27;;;;;;;12.18;2.13;;;3.90;99.90;;;;;;5047821;28;20013;-90
2023/12/30 08:55:54;;;;;;;2.78;1.02;;;3.90;99.90;;;;;;5039061;28;20047;-91
2023/12/30 08:58:24;;;;;;;6.15;0.90;;;3.90;99.90;;;;;;5045381;28;20126;-89
2023/12/30 09:00:50;;;;;;;5.95;0.85;;;3.90;99.90;;;;;;5042608;28;20045;-91
2023/12/30 09:03:16;;;;;;;8.27;2.38;;;3.90;99.90;;;;;;5047388;28;20484;-91
2023/12/30 09:05:42;;;;;;;3.80;0.95;;;3.90;99.90;;;;;;5048648;28;20079;-90
2023/12/30 09:08:08;;;;;;;6.15;1.27;;;3.90;99.90;;;;;;5046916;28;20033;-90
2023/12/30 09:10:34;;;;;;;9.10;1.27;;;3.90;99.90;;;;;;5044273;28;20046;-90
2023/12/30 09:12:59;;;;;;;7.70;1.60;;;3.90;99.90;;;;;;5033743;28;20021;-90
2023/12/30 09:15:25;;;;;;;7.40;1.08;;;3.90;99.90;;;;;;5046859;28;20120;-89
2023/12/30 09:17:51;;;;;;;6.53;1.10;;;3.90;99.90;;;;;;5048769;28;20048;-91
2023/12/30 09:20:17;;;;;;;9.43;2.70;;;4.00;99.90;;;;;;5046577;28;20029;-90
2023/12/30 09:22:43;;;;;;;9.52;2.08;;;4.00;99.90;;;;;;5038580;28;20029;-90
2023/12/30 09:25:09;;;;;;;9.00;1.90;;;4.00;99.90;;;;;;5046662;28;20084;-87
2023/12/30 09:27:35;;;;;;;9.77;1.65;;;4.00;99.90;;;;;;5051939;28;20025;-90
2023/12/30 09:30:01;;;;;;;8.00;1.63;;;4.00;99.90;;;;;;5043362;28;20444;-90
2023/12/30 09:32:26;;;;;;;6.63;2.15;;;4.00;99.90;;;;;;5037164;28;20041;-91
2023/12/30 09:34:53;;;;;;;10.07;1.88;;;4.00;99.90;;;;;;5034724;28;20048;-90
2023/12/30 09:37:19;;;;;;;7.55;1.50;;;4.00;99.90;;;;;;5035571;28;20037;-90
2023/12/30 09:39:46;;;;;;;7.32;2.00;;;4.00;99.90;;;;;;5034209;28;20530;-90
2023/12/30 09:42:11;;;;;;;9.50;2.72;;;4.00;99.90;;;;;;5034201;28;20037;-93
2023/12/30 09:44:38;;;;;;;8.52;2.08;;;4.00;99.90;;;;;;5034573;28;20083;-90
2023/12/30 09:47:07;;;;;;;11.75;2.03;;;4.10;99.90;;;;;;5035933;28;20029;-90
2023/12/30 09:49:35;;;;;;;11.48;2.53;;;4.10;99.90;;;;;;5023326;28;20026;-90
2023/12/30 09:52:08;;;;;;;9.93;2.83;;;4.10;99.90;;;;;;5045037;28;20108;-91
2023/12/30 09:54:34;;;;;;;9.32;2.45;;;4.10;99.90;;;;;;5040239;28;20097;-92
2023/12/30 09:57:02;;;;;;;10.30;2.53;;;4.10;99.90;;;;;;5030257;28;20108;-90
2023/12/30 09:59:30;;;;;;;8.00;2.55;;;4.20;99.90;;;;;;5035633;28;20053;-92
2023/12/30 10:01:56;;;;;;;9.05;2.47;;;4.20;99.90;;;;;;5034298;28;20021;-91
2023/12/30 10:04:22;;;;;;;9.30;3.00;;;4.20;99.90;;;;;;5036428;28;20026;-91
2023/12/30 10:06:51;;;;;;;11.45;4.38;;;4.20;99.90;;;;;;5034259;28;20380;-91
2023/12/30 10:09:19;;;;;;;12.02;3.58;;;4.30;99.90;;;;;;5033060;28;20036;-92
2023/12/30 10:11:49;;;;;;;18.15;5.90;;;4.30;99.90;;;;;;5030653;28;20060;-90
2023/12/30 10:14:14;;;;;;;7.05;3.55;;;4.30;99.90;;;;;;5032456;28;20076;-90
2023/12/30 10:16:40;;;;;;;11.27;3.92;;;4.30;99.90;;;;;;5032627;28;20022;-90
2023/12/30 10:19:13;;;;;;;11.80;4.55;;;4.40;99.90;;;;;;5032417;28;20017;-92
2023/12/30 10:21:39;;;;;;;9.65;4.60;;;4.40;99.90;;;;;;5032679;28;20029;-91
2023/12/30 10:24:06;;;;;;;21.45;6.03;;;4.40;99.90;;;;;;5035484;28;20017;-90
2023/12/30 10:26:33;;;;;;;16.08;5.90;;;4.50;99.90;;;;;;5036729;28;20033;-90
2023/12/30 10:29:00;;;;;;;22.52;6.65;;;4.50;99.90;;;;;;5042289;28;20021;-90
2023/12/30 10:31:27;;;;;;;17.95;7.32;;;4.60;99.90;;;;;;5044831;28;20033;-90
2023/12/30 10:33:53;;;;;;;19.55;5.40;;;4.60;99.90;;;;;;5047419;28;20109;-90
2023/12/30 10:36:19;;;;;;;25.77;7.32;;;4.60;99.90;;;;;;5046402;28;20025;-89
2023/12/30 10:38:45;;;;;;;21.15;5.90;;;4.70;99.90;;;;;;5049869;28;20020;-90
2023/12/30 10:41:12;;;;;;;19.42;7.72;;;4.70;99.90;;;;;;5049037;28;20028;-88
2023/12/30 10:43:38;;;;;;;22.75;6.68;;;4.80;99.90;;;;;;5050619;28;20025;-91
2023/12/30 10:46:10;;;;;;;28.80;7.15;;;4.80;99.90;;;;;;5054680;28;20040;-91
2023/12/30 10:49:03;;;;;;;21.55;6.72;;;4.80;99.90;;;;;;5056275;28;20025;-91
2023/12/30 10:51:33;;;;;;;18.90;6.03;;;4.90;99.90;;;;;;5050939;28;20035;-92
2023/12/30 10:54:06;;;;;;;31.52;6.72;;;4.90;99.90;;;;;;5038627;28;20199;-92
2023/12/30 10:56:57;;;;;;;24.73;7.82;;;4.90;99.90;;;;;;5032413;28;20581;-93
2023/12/30 10:59:27;;;;;;;22.13;6.28;;;5.00;99.90;;;;;;5035538;28;20023;-92
2023/12/30 11:01:53;;;;;;;27.27;5.68;;;5.00;99.90;;;;;;5035765;28;20484;-90
2023/12/30 11:04:21;;;;;;;26.35;6.40;;;5.10;99.90;;;;;;5033503;28;20511;-91
2023/12/30 11:06:56;;;;;;;27.27;6.35;;;5.10;99.90;;;;;;5032027;28;20079;-91
2023/12/30 11:09:29;;;;;;;24.83;7.25;;;5.20;99.90;;;;;;5038946;28;20065;-90
2023/12/30 11:11:59;;;;;;;28.08;6.18;;;5.20;99.90;;;;;;5015487;28;20030;-92
2023/12/30 11:14:25;;;;;;;25.88;6.53;;;5.30;99.90;;;;;;5026128;28;20030;-92
2023/12/30 11:16:50;;;;;;;23.90;6.30;;;5.30;99.90;;;;;;5029018;28;20400;-90
2023/12/30 11:19:29;;;;;;;33.05;7.15;;;5.40;99.90;;;;;;5035929;28;20116;-91
2023/12/30 11:21:57;;;;;;;18.48;5.93;;;5.40;99.90;;;;;;5033951;28;20053;-92
2023/12/30 11:24:23;;;;;;;18.17;6.72;;;5.50;99.90;;;;;;5025095;28;20013;-94
2023/12/30 11:26:52;;;;;;;21.48;8.57;;;5.50;99.90;;;;;;5037029;28;20502;-93
2023/12/30 11:29:21;;;;;;;36.05;6.40;;;5.50;99.90;;;;;;5040285;28;20033;-92
2023/12/30 11:31:48;;;;;;;23.08;6.72;;;5.60;99.90;;;;;;5021248;28;20069;-92
2023/12/30 11:34:17;;;;;;;15.48;6.13;;;5.60;99.90;;;;;;5014958;28;20030;-92
2023/12/30 11:36:46;;;;;;;28.10;6.55;;;5.60;99.90;;;;;;5016600;28;20033;-93
2023/12/30 11:39:17;;;;;;;32.83;6.82;;;5.60;99.90;;;;;;5016928;28;20354;-92
2023/12/30 11:41:43;;;;;;;39.42;7.55;;;5.70;99.90;;;;;;5017094;28;20041;-95
2023/12/30 11:44:09;;;;;;;33.15;7.15;;;5.70;99.90;;;;;;5016545;28;20041;-93
2023/12/30 11:46:35;;;;;;;20.52;6.18;;;5.80;99.90;;;;;;5016014;28;20029;-94
2023/12/30 11:49:01;;;;;;;23.17;7.15;;;5.80;99.90;;;;;;5016594;28;20053;-92
2023/12/30 11:51:29;;;;;;;21.85;6.35;;;5.80;99.90;;;;;;5016748;28;20042;-92
2023/12/30 11:53:55;;;;;;;20.85;6.47;;;5.90;99.90;;;;;;5019782;28;20064;-93
2023/12/30 11:56:22;;;;;;;17.67;6.00;;;5.90;99.90;;;;;;5017784;28;20034;-92
2023/12/30 11:58:49;;;;;;;20.65;5.28;;;6.00;99.90;;;;;;5021171;28;20549;-95
2023/12/30 12:01:17;;;;;;;26.38;7.65;;;6.10;99.90;;;;;;5035883;28;20025;-94
2023/12/30 12:03:43;;;;;;;17.73;4.93;;;6.20;99.90;;;;;;5038399;28;20029;-94
2023/12/30 12:06:10;;;;;;;16.65;5.30;;;6.30;99.90;;;;;;5051935;28;20029;-94
2023/12/30 12:08:38;;;;;;;15.23;4.32;;;6.30;99.90;;;;;;5049781;28;20032;-93
2023/12/30 12:11:05;;;;;;;13.45;4.93;;;6.40;99.90;;;;;;5054961;28;20063;-94
2023/12/30 12:13:31;;;;;;;16.77;5.00;;;6.40;99.90;;;;;;5060389;28;20484;-92
2023/12/30 12:15:58;;;;;;;15.65;5.10;;;6.50;99.90;;;;;;5061384;28;20048;-94
2023/12/30 12:18:24;;;;;;;24.00;5.13;;;6.50;99.90;;;;;;5062889;28;20183;-92
2023/12/30 12:20:50;;;;;;;21.15;5.38;;;6.50;99.90;;;;;;5054316;28;20107;-94
2023/12/30 12:23:16;;;;;;;13.70;4.32;;;6.60;99.90;;;;;;5055091;28;20056;-93
2023/12/30 12:25:43;;;;;;;12.63;4.30;;;6.60;99.90;;;;;;5051329;28;20036;-94
2023/12/30 12:28:15;;;;;;;11.15;3.50;;;6.70;99.90;;;;;;5048856;28;20025;-93
2023/12/30 12:30:41;;;;;;;18.10;4.32;;;6.70;99.90;;;;;;5051828;28;20039;-92
2023/12/30 12:33:08;;;;;;;12.68;3.70;;;6.80;99.90;;;;;;5051873;28;20131;-93
2023/12/30 12:35:34;;;;;;;11.60;3.80;;;6.80;99.90;;;;;;5058459;28;20096;-93
2023/12/30 12:38:00;;;;;;;13.02;3.50;;;6.80;99.90;;;;;;5054825;28;20465;-94
2023/12/30 12:40:27;;;;;;;7.57;2.75;;;6.90;99.90;;;;;;5046243;28;20029;-92
2023/12/30 12:42:53;;;;;;;5.97;2.17;;;6.90;99.90;;;;;;5050508;28;20083;-92
2023/12/30 12:45:19;;;;;;;9.95;3.00;;;7.00;99.90;;;;;;5049680;28;20029;-92
2023/12/30 12:47:45;;;;;;;6.97;2.70;;;7.10;99.90;;;;;;5051931;28;20027;-93
2023/12/30 12:50:11;;;;;;;15.75;3.75;;;7.20;99.90;;;;;;5053334;28;20029;-91